Flight Track Log - Related Links

Times and Time Zones

All times are in EDT time to prevent confusion due to time zone crossing. See the EJA396 flight status page for this flight to view local times or setup timezone preferences in your user account.

Time Position Orientation Groundspeed Altitude Reporting Facility
EDT Latitude Longitude Course Direction KTS MPH feet Rate Location/Type
Mon 12:50:56 PM 37.6303 -122.3967 297° West 135 155 41,000  Level Oakland Center
Mon 12:51:57 PM 37.6519 -122.4511 297° West 210 242 4,200 -16,116 Descending Oakland Center
Mon 12:52:57 PM 37.6308 -122.5189 249° West 263 303 8,500 4,180 Climbing Oakland Center
Mon 12:53:59 PM 37.5581 -122.4844 159° South 288 331 12,700 3,968 Climbing Oakland Center
Mon 12:55:01 PM 37.4853 -122.3733 130° Southeast 348 400 16,700 3,366 Climbing Oakland Center
Mon 12:56:02 PM 37.4161 -122.2689 130° Southeast 386 444 19,600 2,852 Climbing Oakland Center
Mon 12:57:03 PM 37.3447 -122.1594 129° Southeast 402 463 22,500 2,508 Climbing Oakland Center
Mon 12:58:04 PM 37.2694 -122.0467 130° Southeast 420 483 24,700 2,066 Climbing Oakland Center
Mon 12:59:05 PM 37.1903 -121.9292 130° Southeast 436 502 26,700 1,984 Climbing Oakland Center
Mon 01:00:08 PM 37.1083 -121.8064 130° Southeast 448 516 28,800 1,935 Climbing Oakland Center
Mon 01:01:09 PM 37.0269 -121.6917 132° Southeast 451 519 30,700 1,918 Climbing Oakland Center
Mon 01:02:10 PM 36.9458 -121.5736 131° Southeast 450 518 32,700 2,129 Climbing Oakland Center
Mon 01:03:13 PM 36.8539 -121.4283 128° Southeast 448 516 35,100 2,115 Climbing Oakland Center
Mon 01:04:12 PM 36.7769 -121.3217 132° Southeast 435 501 37,000 1,902 Climbing Oakland Center
Mon 01:05:16 PM 36.7011 -121.2111 131° Southeast 421 484 39,000 1,887 Climbing Oakland Center
Mon 01:06:16 PM 36.6300 -121.1047 130° Southeast 406 467 40,900 992 Climbing Oakland Center
Mon 01:07:17 PM 36.5550 -120.9997 132° Southeast 405 466 41,000 50 Climbing Oakland Center
Mon 01:08:17 PM 36.4772 -120.8850 130° Southeast 430 495 41,000  Level Oakland Center
Mon 01:09:21 PM 36.3969 -120.7658 130° Southeast 446 513 41,000  Level Oakland Center
Mon 01:10:21 PM 36.2956 -120.6183 130° Southeast 463 533 41,000  Level Oakland Center
Mon 01:11:22 PM 36.2111 -120.4992 131° Southeast 463 533 41,000  Level Oakland Center
Mon 01:12:23 PM 36.1283 -120.3792 130° Southeast 461 531 41,000  Level Oakland Center
Mon 01:13:27 PM 36.0442 -120.2592 131° Southeast 460 529 41,000  Level Oakland Center
Mon 01:14:27 PM 35.9608 -120.1403 131° Southeast 459 528 41,000  Level Oakland Center
Mon 01:15:28 PM 35.8761 -120.0208 131° Southeast 459 528 41,000  Level Oakland Center
Mon 01:16:32 PM 35.7933 -119.9031 131° Southeast 458 527 41,000  Level Oakland Center
Mon 01:17:30 PM 35.7100 -119.7861 131° Southeast 456 525 41,000  Level Oakland Center
Mon 01:18:34 PM 35.6281 -119.6700 131° Southeast 450 518 41,000  Level Oakland Center
Mon 01:19:36 PM 35.5447 -119.5544 132° Southeast 450 518 41,000  Level Oakland Center
Mon 01:20:36 PM 35.4606 -119.4375 131° Southeast 454 522 41,000  Level Oakland Center
Mon 01:21:36 PM 35.3614 -119.2989 131° Southeast 454 522 41,000  Level Oakland Center
Mon 01:22:39 PM 35.2781 -119.1844 132° Southeast 453 521 41,000  Level Oakland Center
Mon 01:23:40 PM 35.1950 -119.0686 131° Southeast 453 521 41,000  Level Oakland Center
Mon 01:24:41 PM 35.1103 -118.9525 132° Southeast 454 522 41,000  Level Oakland Center
Mon 01:25:42 PM 35.0267 -118.8369 131° Southeast 454 522 41,000  Level Oakland Center
Mon 01:26:43 PM 34.9425 -118.7211 132° Southeast 454 522 41,000  Level Oakland Center
Mon 01:28:11 PM 34.8089 -118.5447 133° Southeast 461 531 41,000  Level Los Angeles Center
Mon 01:29:12 PM 34.7289 -118.4369 132° Southeast 461 531 41,000  Level Los Angeles Center
Mon 01:30:15 PM 34.6394 -118.3156 132° Southeast 455 524 41,000  Level Los Angeles Center
Mon 01:31:16 PM 34.5567 -118.2069 133° Southeast 439 505 41,000  Level Los Angeles Center
Mon 01:32:19 PM 34.4700 -118.0906 132° Southeast 423 487 41,000  Level Los Angeles Center
Mon 01:33:20 PM 34.4092 -117.9703 121° Southeast 437 503 41,000  Level Los Angeles Center
Mon 01:34:24 PM 34.3717 -117.8114 106° East 442 509 41,000  Level Los Angeles Center
Mon 01:35:25 PM 34.3364 -117.6639 106° East 451 519 41,000  Level Los Angeles Center
Mon 01:36:28 PM 34.2994 -117.5125 106° East 462 532 41,000  Level Los Angeles Center
Mon 01:37:31 PM 34.2631 -117.3611 106° East 464 534 41,000  Level Los Angeles Center
Mon 01:38:32 PM 34.2253 -117.2103 107° East 465 535 41,000  Level Los Angeles Center
Mon 01:39:33 PM 34.1847 -117.0508 107° East 471 542 41,000  Level Los Angeles Center
Mon 01:40:37 PM 34.1472 -116.8997 107° East 473 544 41,000  Level Los Angeles Center
Mon 01:41:38 PM 34.1092 -116.7433 106° East 473 544 41,000  Level Los Angeles Center
Mon 01:42:41 PM 34.0636 -116.5589 107° East 475 547 41,000  Level Los Angeles Center
Mon 01:43:42 PM 34.0261 -116.4097 107° East 471 542 41,000  Level Los Angeles Center
Mon 01:44:45 PM 33.9881 -116.2619 107° East 463 533 41,000  Level Los Angeles Center
Mon 01:45:48 PM 33.9514 -116.1164 107° East 456 525 41,000  Level Los Angeles Center
Mon 01:46:49 PM 33.9133 -115.9692 107° East 455 524 41,000  Level Los Angeles Center
Mon 01:47:53 PM 33.8747 -115.8214 107° East 462 532 41,000  Level Los Angeles Center
Mon 01:48:53 PM 33.8392 -115.6792 107° East 449 517 41,000  Level Los Angeles Center
Mon 01:49:57 PM 33.7919 -115.5011 108° East 462 532 41,000  Level Los Angeles Center
Mon 01:50:58 PM 33.7533 -115.3558 108° East 461 531 41,000  Level Los Angeles Center
Mon 01:52:00 PM 33.7144 -115.2125 108° East 455 524 41,000 -341 Level Los Angeles Center
Mon 01:53:01 PM 33.6733 -115.0650 108° East 458 527 40,300 -1,056 Descending Los Angeles Center
Mon 01:54:05 PM 33.6364 -114.9203 107° East 457 526 38,800 -1,440 Descending Los Angeles Center
Mon 01:55:06 PM 33.5997 -114.7764 107° East 449 517 37,300 -2,112 Descending Los Angeles Center
Mon 01:56:10 PM 33.5606 -114.5925 104° East 473 544 34,400 -2,714 Descending Los Angeles Center
Mon 01:57:12 PM 33.5311 -114.4372 103° East 479 551 31,600 -2,710 Descending Los Angeles Center
Mon 01:58:14 PM 33.5019 -114.2839 103° East 475 547 28,800 -2,862 Descending Los Angeles Center
Mon 01:59:22 PM 33.4675 -114.1019 103° East 473 544 25,400 -1,754 Descending Albuquerque Center
Mon 02:00:24 PM 33.4397 -113.9525 103° East 465 535 25,000 -919 Descending Albuquerque Center
Mon 02:01:26 PM 33.4089 -113.8069 104° East 457 526 23,500 -1,548 Descending Albuquerque Center
Mon 02:02:28 PM 33.3806 -113.6636 103° East 448 516 21,800 -1,597 Descending Albuquerque Center
Mon 02:03:30 PM 33.3531 -113.5308 104° East 422 486 20,200 -1,680 Descending Albuquerque Center
Mon 02:04:33 PM 33.3208 -113.3756 104° East 408 470 18,300 -1,645 Descending Albuquerque Center
Mon 02:05:34 PM 33.2944 -113.2486 104° East 400 460 16,800 -1,463 Descending Albuquerque Center
Mon 02:06:36 PM 33.2739 -113.1233 101° East 388 447 15,300 -1,452 Descending Albuquerque Center
Mon 02:07:38 PM 33.2764 -112.9933 89° East 387 445 13,800 -1,452 Descending Albuquerque Center
Mon 02:08:40 PM 33.2794 -112.8669 88° East 385 443 12,300 -1,258 Descending Albuquerque Center
Mon 02:09:42 PM 33.2628 -112.7697 102° East 311 358 11,200 -1,200 Descending Albuquerque Center
Mon 02:10:45 PM 33.2294 -112.6533 109° East 300 345 9,800 -1,056 Descending Albuquerque Center
Mon 02:11:47 PM 33.2031 -112.5547 108° East 303 349 9,000 -387 Descending Albuquerque Center
Mon 02:12:49 PM 33.1775 -112.4578 107° East 303 349 9,000  Level Albuquerque Center
Mon 02:13:51 PM 33.1528 -112.3642 107° East 303 349 9,000  Level Albuquerque Center
Mon 02:14:53 PM 33.1536 -112.2600 89° East 303 349 9,000 -242 Level Albuquerque Center
Mon 02:15:55 PM 33.1553 -112.1636 89° East 303 349 8,500 -726 Descending Albuquerque Center
Mon 02:16:57 PM 33.1647 -112.0608 84° East 308 354 7,500 -1,065 Descending Albuquerque Center
Mon 02:17:59 PM 33.2156 -111.9581 59° Northeast 311 358 6,300 -1,065 Descending Albuquerque Center
Mon 02:19:01 PM 33.2539 -111.8781 60° Northeast 282 325 5,300 -968 Descending Albuquerque Center
Mon 02:20:03 PM 33.3047 -111.8203 44° Northeast 259 298 4,300 -677 Descending Albuquerque Center
Mon 02:21:05 PM 33.3594 -111.7631 41° Northeast 260 299 3,900 -532 Descending Albuquerque Center
Mon 02:22:07 PM 33.4086 -111.7144 40° Northeast 230 265 3,200 -629 Descending Albuquerque Center
Mon 02:23:09 PM 33.4533 -111.6731 38° Northeast 165 190 2,600 -484 Descending Albuquerque Center
Mon 02:24:11 PM 33.4808 -111.6919 330° Northwest 119 137 2,200 -581 Descending Albuquerque Center
Mon 02:25:13 PM 33.4633 -111.7242 237° Southwest 112 129 1,400 -774 Descending Albuquerque Center

Login

Don't have an account? Register now (free) for customized features, flight alerts, and more!